Latest Coastal Weather Observations for Swan Island

IDT60701

Issued at 11:32 am EST Saturday 30 April 2016 (issued every 10 minutes, with the page automatically refreshed every 10 minutes)

About coastal observations | Map of coastal stations | Coastal observations for TAS | Marine services | Other Formats
Station Details ID: 092123 Name: SWAN ISLAND Lat: -40.73 Lon: 148.12 Height: 15.0 m
Data from the previous 72 hours. | See also: Recent months at Swan Island
Date/Time
EST
Temp

°C
Wind Pressure Rain
since 9am
mm
Weather Cloud Vis
km
Sea
Height
m
Swell
Dir
 
Speed
knots
Gust
knots
hPa Trend Height
m
Period
s
Dir
30/11:30am 19.3 NNW 11 13 1013.1 - 0.0 - - - - - - -
30/11:00am 19.1 NNW 11 12 1013.4 - 0.0 - - - - - - -
30/10:30am 19.0 NNW 9 11 1013.7 - 0.0 - - - - - - -
30/10:00am 18.7 NW 12 13 1013.8 - 0.0 - - - - - - -
30/09:30am 18.3 NW 12 14 1014.1 - 0.0 - - - - - - -
30/09:00am 18.3 NW 11 13 1014.3 - 8.8 - - - - - - -
30/08:30am 18.0 NW 10 13 1014.1 - 8.8 - - - - - - -
30/08:00am 17.8 NW 12 15 1014.0 - 8.8 - - - - - - -
30/07:30am 17.5 WNW 5 9 1013.9 - 8.8 - - - - - - -
30/07:00am 16.6 WNW 6 7 1013.7 - 8.8 - - - - - - -
30/06:30am 16.8 WNW 6 8 1013.4 - 8.6 - - - - - - -
30/06:00am 16.6 NW 7 9 1013.3 - 8.4 - - - - - - -
30/05:30am 16.2 NW 7 11 1013.2 - 8.4 - - - - - - -
30/05:00am 16.7 WNW 10 13 1013.2 - 8.4 - - - - - - -
30/04:30am 16.4 WNW 9 13 1013.0 - 8.4 - - - - - - -
30/04:00am 16.6 WNW 10 13 1012.7 - 8.4 - - - - - - -
30/03:30am 16.5 WNW 8 11 1012.7 - 7.4 - - - - - - -
30/03:00am 16.6 WNW 9 16 1012.7 - 7.4 Recent precip. - - - - - -
30/02:30am 17.0 NW 11 14 1012.4 - 7.4 - - - - - - -
30/02:00am 17.2 NW 10 15 1012.6 - 7.0 - - - - - - -
30/01:30am 17.1 WNW 11 16 1012.7 - 7.0 - - - - - - -
30/01:00am 17.3 WNW 12 17 1012.7 - 6.8 - - - - - - -
30/12:30am 17.4 NW 12 17 1012.7 - 6.8 - - - - - - -
30/12:00am 17.3 NW 14 19 1012.8 - 6.8 - - - - - - -
 
Date/Time
EST
Temp

°C
Wind Pressure Rain
since 9am
mm
Weather Cloud Vis
km
Sea
Height
m
Swell
Dir
 
Speed
knots
Gust
knots
hPa Trend Height
m
Period
s
Dir
29/11:30pm 17.0 NW 15 20 1012.8 - 6.8 - - - - - - -
29/11:00pm 17.0 NW 16 20 1013.0 - 6.8 - - - - - - -
29/10:30pm 17.1 NW 17 21 1013.0 - 6.8 - - - - - - -
29/10:00pm 17.0 NW 17 20 1012.9 - 6.8 - - - - - - -
29/09:30pm 16.8 NW 16 19 1013.0 - 6.8 - - - - - - -
29/09:00pm 16.7 NW 17 19 1012.8 - 6.8 - - - - - - -
29/08:30pm 16.8 NNW 18 20 1012.4 - 6.8 - - - - - - -
29/08:00pm 16.6 NNW 16 19 1013.0 - 6.8 - - - - - - -
29/07:30pm 16.4 NW 17 20 1013.1 - 6.8 - - - - - - -
29/07:00pm 16.3 NW 15 19 1013.2 - 6.2 - - - - - - -
29/06:30pm 16.1 WNW 16 21 1013.2 - 5.0 - - - - - - -
29/06:00pm 16.8 WNW 13 17 1012.8 - 3.8 Rain - - - - - -
29/05:30pm 16.6 WNW 10 15 1012.7 - 3.0 - - - - - - -
29/05:00pm 16.9 WNW 10 14 1012.6 - 2.0 - - - - - - -
29/04:30pm 17.3 WNW 7 9 1012.9 - 1.0 - - - - - - -
29/04:00pm 17.6 WNW 7 9 1012.6 - 0.8 - - - - - - -
29/03:30pm 17.6 WNW 7 10 1012.6 - 0.8 - - - - - - -
29/03:00pm 17.8 W 6 8 1012.3 - 0.8 - - - - - - -
29/02:30pm 17.8 WNW 6 7 1012.4 - 0.8 - - - - - - -
29/02:00pm 17.9 NNW 4 5 1012.5 - 0.8 - - - - - - -
29/01:30pm 18.1 WNW 3 5 1012.9 - 0.8 - - - - - - -
29/01:00pm 18.5 W 9 11 1013.1 - 0.4 - - - - - - -
29/12:30pm 19.8 W 9 13 1013.1 - 0.0 - - - - - - -
29/12:00pm 20.2 NNW 9 11 1013.2 - 0.0 - - - - - - -
29/11:30am 20.5 N 11 13 1013.2 - 0.0 - - - - - - -
29/11:00am 21.3 NNE 10 11 1013.6 - 0.0 - - - - - - -
29/10:30am 21.0 N 10 11 1014.3 - 0.0 - - - - - - -
29/10:00am 19.8 N 12 14 1014.8 - 0.0 - - - - - - -
29/09:30am 20.0 N 14 17 1014.9 - 0.0 - - - - - - -
29/09:00am 18.9 N 13 15 1015.1 - 1.4 - - - - - - -
29/08:30am 18.9 WNW 3 5 1015.6 - 1.4 - - - - - - -
29/08:00am 18.1 N 10 13 1015.6 - 1.4 - - - - - - -
29/07:30am 17.9 NNE 6 9 1015.3 - 1.4 - - - - - - -
29/07:00am 17.9 NE 10 12 1015.4 - 1.4 - - - - - - -
29/06:30am 17.9 NE 12 15 1015.6 - 1.4 - - - - - - -
29/06:00am 17.8 NE 12 14 1015.5 - 1.4 - - - - - - -
29/05:30am 17.7 ENE 12 14 1015.6 - 1.4 - - - - - - -
29/05:00am 17.3 ENE 12 14 1015.8 - 1.4 - - - - - - -
29/04:30am 16.7 ENE 10 13 1016.0 - 1.4 - - - - - - -
29/04:00am 16.4 ESE 10 12 1016.2 - 1.4 - - - - - - -
29/03:30am 15.9 SSW 6 8 1017.5 - 1.0 - - - - - - -
29/03:00am 16.6 SSE 5 6 1017.3 - 0.8 - - - - - - -
29/02:30am 17.0 SSE 3 5 1017.6 - 0.8 - - - - - - -
29/02:00am 17.0 SSE 5 8 1017.5 - 0.8 - - - - - - -
29/01:30am 17.1 NE 5 6 1017.9 - 0.8 - - - - - - -
29/01:00am 17.0 NE 3 4 1017.9 - 0.8 - - - - - - -
29/12:30am 16.9 N 7 9 1018.3 - 0.8 - - - - - - -
29/12:00am 17.0 NNE 4 5 1018.2 - 0.8 - - - - - - -
 
Date/Time
EST
Temp

°C
Wind Pressure Rain
since 9am
mm
Weather Cloud Vis
km
Sea
Height
m
Swell
Dir
 
Speed
knots
Gust
knots
hPa Trend Height
m
Period
s
Dir
28/11:30pm 16.7 N 6 8 1018.3 - 0.8 - - - - - - -
28/11:00pm 16.9 N 4 5 1018.5 - 0.8 - - - - - - -
28/10:30pm 16.8 NNE 2 4 1018.3 - 0.8 - - - - - - -
28/10:00pm 16.9 NNE 4 5 1018.4 - 0.8 - - - - - - -
28/09:30pm 17.1 NNE 3 4 1018.6 - 0.8 - - - - - - -
28/09:00pm 17.2 N 1 2 1018.3 - 0.8 Recent precip. - - - - - -
28/08:30pm 17.2 NNW 3 5 1018.5 - 0.8 - - - - - - -
28/08:00pm 17.3 NNW 6 7 1018.8 - 0.6 - - - - - - -
28/07:30pm 17.6 NW 7 9 1018.7 - 0.4 - - - - - - -
28/07:00pm 17.8 NW 8 10 1018.6 - 0.0 - - - - - - -
28/06:30pm 17.8 WNW 7 9 1018.2 - 0.0 - - - - - - -
28/06:00pm 17.9 WNW 7 11 1017.9 - 0.0 - - - - - - -
28/05:30pm 17.9 NW 9 12 1017.5 - 0.0 - - - - - - -
28/05:00pm 18.0 NW 11 15 1017.2 - 0.0 - - - - - - -
28/04:30pm 18.1 NW 13 15 1017.1 - 0.0 - - - - - - -
28/04:00pm 18.4 NW 9 12 1016.7 - 0.0 - - - - - - -
28/03:30pm 20.0 WNW 7 9 1015.9 - 0.0 - - - - - - -
28/03:00pm 18.9 WNW 7 10 1015.9 - 0.0 - - - - - - -
28/02:30pm 18.8 WNW 6 9 1015.9 - 0.0 - - - - - - -
28/02:00pm 19.0 WNW 11 14 1016.2 - 0.0 - - - - - - -
28/01:30pm 19.8 NW 9 12 1016.4 - 0.0 - - - - - - -
28/01:00pm 20.6 NW 10 12 1016.4 - 0.0 - - - - - - -
28/12:30pm 19.3 NW 15 17 1016.2 - 0.0 - - - - - - -
28/12:00pm 19.1 NW 12 14 1016.1 - 0.0 - - - - - - -
28/11:30am 19.4 NNW 14 17 1016.3 - 0.0 - - - - - - -
28/11:00am 19.6 NW 14 15 1016.1 - 0.0 - - - - - - -
28/10:30am 19.6 NNW 16 19 1016.0 - 0.0 - - - - - - -
28/10:00am 19.1 NNW 14 16 1015.8 - 0.0 - - - - - - -
28/09:30am 19.1 NW 13 15 1015.9 - 0.0 - - - - - - -
28/09:00am 19.3 NW 15 17 1016.0 - 0.0 - - - - - - -
28/08:30am 19.4 NW 17 19 1016.0 - 0.0 - - - - - - -
28/08:00am 19.4 NW 18 21 1015.7 - 0.0 - - - - - - -
28/07:30am 19.3 NW 18 21 1015.5 - 0.0 - - - - - - -
28/07:00am 19.3 NW 17 20 1015.1 - 0.0 - - - - - - -
28/06:30am 19.6 NNW 18 21 1014.6 - 0.0 - - - - - - -
28/06:00am 19.6 NNW 20 26 1014.5 - 0.0 - - - - - - -
28/05:30am 19.6 NNW 19 22 1014.4 - 0.0 - - - - - - -
28/05:00am 19.4 NNW 19 21 1014.3 - 0.0 - - - - - - -
28/04:30am 19.6 NNW 20 23 1014.2 - 0.0 - - - - - - -
28/04:00am 19.6 NNW 19 22 1014.1 - 0.0 - - - - - - -
28/03:30am 19.6 NNW 20 23 1014.2 - 0.0 - - - - - - -
28/03:00am 19.5 NNW 18 20 1014.3 - 0.0 - - - - - - -
28/02:30am 19.5 NNW 18 21 1014.5 - 0.0 - - - - - - -
28/02:00am 19.0 N 15 17 1014.7 - 0.0 - - - - - - -
28/01:30am 18.1 N 14 17 1014.7 - 0.0 - - - - - - -
28/01:00am 18.3 N 16 18 1014.8 - 0.0 - - - - - - -
28/12:30am 18.5 N 17 19 1014.9 - 0.0 - - - - - - -
28/12:00am 18.3 N 15 19 1015.1 - 0.0 - - - - - - -
 
Date/Time
EST
Temp

°C
Wind Pressure Rain
since 9am
mm
Weather Cloud Vis
km
Sea
Height
m
Swell
Dir
 
Speed
knots
Gust
knots
hPa Trend Height
m
Period
s
Dir
27/11:30pm 18.5 N 17 19 1015.4 - 0.0 - - - - - - -
27/11:00pm 18.4 N 18 23 1015.6 - 0.0 - - - - - - -
27/10:30pm 18.4 N 20 23 1015.8 - 0.0 - - - - - - -
27/10:00pm 18.5 N 20 23 1015.8 - 0.0 - - - - - - -
27/09:30pm 18.4 N 20 23 1016.0 - 0.0 - - - - - - -
27/09:00pm 18.4 N 19 23 1016.0 - 0.0 - - - - - - -
27/08:30pm 18.3 N 17 21 1016.2 - 0.0 - - - - - - -
27/08:00pm 18.4 N 19 22 1016.2 - 0.0 - - - - - - -
27/07:30pm 18.4 N 17 21 1016.3 - 0.0 - - - - - - -
27/07:00pm 18.5 N 17 20 1016.3 - 0.0 - - - - - - -
27/06:30pm 18.6 N 15 18 1016.1 - 0.0 - - - - - - -
27/06:00pm 18.6 N 14 16 1016.0 - 0.0 - - - - - - -
27/05:30pm 18.9 N 14 17 1015.8 - 0.0 - - - - - - -
27/05:00pm 19.9 N 17 19 1015.5 - 0.0 - - - - - - -
27/04:30pm 19.9 NNW 18 22 1015.7 - 0.0 - - - - - - -
27/04:00pm 19.9 NNW 17 20 1015.9 - 0.0 - - - - - - -
27/03:30pm 20.4 NNW 19 21 1015.8 - 0.0 - - - - - - -
27/03:00pm 20.5 NNW 21 24 1015.7 - 0.0 - - - - - - -
27/02:30pm 20.7 NNW 21 24 1015.8 - 0.0 - - - - - - -
27/02:00pm 21.2 NNW 20 23 1015.9 - 0.0 - - - - - - -
27/01:30pm 21.1 NNW 19 23 1016.4 - 0.0 - - - - - - -
27/01:00pm 20.9 NNW 18 21 1016.8 - 0.0 - - - - - - -
27/12:30pm 21.1 NNW 19 22 1017.3 - 0.0 - - - - - - -
27/12:00pm 21.0 NNW 18 21 1017.8 - 0.0 - - - - - - -

Other Formats:

Comma delimited format used in spreadsheet applications
http://www.bom.gov.au/fwo/IDT60701/IDT60701.95985.axf

JavaScript Object Notation format (JSON) in row-major order
http://www.bom.gov.au/fwo/IDT60701/IDT60701.95985.json